Latest Weather Observations for Brisbane

IDQ60901

Issued at 7:25 pm EST Friday 25 April 2014 (issued every 10 minutes, with the page automatically refreshed every 10 minutes)

About weather observations | Map of Brisbane area stations | Latest observations for Brisbane area | Other Formats
Station Details ID: 040913 Name: BRISBANE Lat: -27.48 Lon: 153.04 Height: 8.13 m
Data from the previous 72 hours. | See also: Recent months at Brisbane
Date/Time
EST
Tmp

°C
App
Tmp
°C
Dew
Point
°C
Rel
Hum
%
Delta-T

°C
Wind Press
QNH
hPa
Press
MSL
hPa
Rain
since
9 am
mm
Dir
 
Spd
km/h
Gust
km/h
Spd
kts
Gust
kts
25/07:00pm 22.5 24.6 17.2 72 3.3 SE 2 7 1 4 1018.4 1018.4 0.0
25/06:30pm 23.1 24.6 17.6 71 3.4 ESE 6 9 3 5 1017.9 - 0.0
25/06:00pm 23.4 24.9 17.6 70 3.6 ESE 6 11 3 6 1017.4 1017.4 0.0
25/05:30pm 23.9 24.7 17.4 67 4.0 E 9 17 5 9 1017.0 - 0.0
25/05:00pm 24.5 24.9 17.2 63 4.5 E 11 19 6 10 1016.4 1016.4 0.0
25/04:30pm 25.6 25.1 15.9 55 5.9 E 13 20 7 11 1016.1 - 0.0
25/04:00pm 26.5 26.0 14.9 49 7.0 ESE 11 19 6 10 1015.8 1015.8 0.0
25/03:30pm 26.9 27.0 16.5 53 6.4 E 11 19 6 10 1015.8 - 0.0
25/03:00pm 27.1 26.3 16.1 51 6.8 E 15 26 8 14 1015.6 1015.6 0.0
25/02:30pm 27.4 27.5 15.4 48 7.3 E 9 17 5 9 1015.5 - 0.0
25/02:00pm 27.7 28.1 15.4 47 7.5 NE 7 15 4 8 1015.7 1015.7 0.0
25/01:30pm 27.6 28.4 14.9 45 7.7 ESE 4 9 2 5 1015.9 - 0.0
25/01:00pm 28.5 29.3 15.8 46 7.8 ESE 6 11 3 6 1016.1 1016.1 0.0
25/12:30pm 28.1 29.1 15.4 46 7.8 ESE 4 11 2 6 1016.7 - 0.0
25/12:00pm 27.2 28.1 13.9 44 7.9 E 2 6 1 3 1017.2 1017.2 0.0
25/11:30am 26.9 28.5 16.8 54 6.3 SSE 4 6 2 3 1017.7 - 0.0
25/11:00am 26.0 27.5 17.6 60 5.3 SW 6 11 3 6 1018.2 1018.2 0.0
25/10:30am 25.3 27.1 17.5 62 4.9 S 4 7 2 4 1018.5 - 0.0
25/10:00am 24.2 25.8 17.9 68 3.9 SSW 6 9 3 5 1018.8 1018.8 0.0
25/09:30am 23.0 24.7 17.2 70 3.6 WSW 4 7 2 4 1019.1 - 0.0
25/09:00am 21.5 22.6 16.7 74 2.9 SW 6 11 3 6 1019.2 1019.2 0.0
25/08:30am 20.2 21.8 16.8 81 2.1 SW 4 9 2 5 1019.1 - 0.0
25/08:00am 19.0 19.9 16.0 83 1.8 WSW 6 9 3 5 1018.8 1018.8 0.0
25/07:30am 18.5 19.4 16.1 86 1.4 SW 6 9 3 5 1018.0 - 0.0
25/07:00am 17.7 18.9 16.0 90 1.0 SW 4 7 2 4 1017.7 1017.7 0.0
25/06:30am 17.2 18.8 15.9 92 0.8 SSW 2 6 1 3 1017.2 - 0.0
25/06:00am 17.3 18.6 16.2 93 0.7 WSW 4 6 2 3 1016.9 1016.9 0.0
25/05:30am 17.6 19.5 16.6 94 0.6 WSW 2 6 1 3 1016.5 - 0.0
25/05:00am 17.7 19.5 16.4 92 0.8 SW 2 6 1 3 1016.2 1016.2 0.0
25/04:30am 18.0 19.6 16.9 93 0.7 SW 4 7 2 4 1016.0 - 0.0
25/04:00am 17.9 19.5 16.9 94 0.6 WSW 4 7 2 4 1015.8 1015.8 0.0
25/03:30am 17.7 19.9 16.4 92 0.8 CALM 0 4 0 2 1015.8 - 0.0
25/03:00am 17.7 19.7 16.0 90 1.0 CALM 0 2 0 1 1015.7 1015.7 0.0
25/02:30am 18.3 19.9 16.8 91 0.9 WSW 4 6 2 3 1015.7 - 0.0
25/02:00am 18.0 20.4 16.9 93 0.7 CALM 0 0 0 0 1015.9 1015.9 0.0
25/01:30am 18.2 20.4 16.5 90 1.0 CALM 0 0 0 0 1016.2 - 0.0
25/01:00am 18.7 20.5 17.4 92 0.8 W 4 6 2 3 1016.4 1016.4 0.0
25/12:30am 18.8 21.2 18.0 95 0.5 WSW 2 4 1 2 1016.4 - 0.0
25/12:00am 18.4 20.9 17.2 93 0.7 SSE 0 0 0 0 1016.5 1016.5 0.0
 
Date/Time
EST
Tmp

°C
App
Tmp
°C
Dew
Point
°C
Rel
Hum
%
Delta-T

°C
Wind Press
QNH
hPa
Press
MSL
hPa
Rain
since
9 am
mm
Dir
 
Spd
km/h
Gust
km/h
Spd
kts
Gust
kts
24/11:30pm 18.4 20.8 16.9 91 0.9 CALM 0 0 0 0 1016.5 - 0.0
24/11:00pm 18.9 21.4 17.2 90 1.0 CALM 0 0 0 0 1016.7 1016.7 0.0
24/10:30pm 19.4 21.9 17.2 87 1.3 CALM 0 0 0 0 1016.6 - 0.0
24/10:00pm 20.0 22.6 17.4 85 1.6 CALM 0 0 0 0 1016.6 1016.6 0.0
24/09:30pm 20.8 23.2 18.0 84 1.7 N 2 4 1 2 1016.6 - 0.0
24/09:00pm 21.3 23.6 17.7 80 2.2 N 2 4 1 2 1016.5 1016.5 0.0
24/08:30pm 22.0 24.5 18.2 79 2.4 N 2 6 1 3 1016.2 - 0.0
24/08:00pm 22.3 24.8 18.1 77 2.6 N 2 6 1 3 1016.2 1016.2 0.0
24/07:30pm 22.5 24.6 18.1 76 2.7 N 4 7 2 4 1016.0 - 0.0
24/07:00pm 22.7 25.1 18.0 75 2.9 NNE 2 4 1 2 1015.8 1015.8 0.0
24/06:30pm 23.0 25.0 17.9 73 3.2 NE 4 7 2 4 1015.3 - 0.0
24/06:00pm 23.2 24.5 17.2 69 3.7 NE 6 7 3 4 1014.7 1014.7 0.0
24/05:30pm 23.9 25.2 17.2 66 4.1 NNE 6 11 3 6 1014.5 - 0.0
24/05:00pm 24.6 25.0 14.7 54 5.9 NNE 6 11 3 6 1014.4 1014.4 0.0
24/04:30pm 26.2 26.8 15.3 51 6.6 NNE 6 15 3 8 1014.3 - 0.0
24/04:00pm 26.9 27.4 15.0 48 7.2 NE 6 11 3 6 1013.7 1013.7 0.0
24/03:30pm 27.4 28.4 16.4 51 6.8 NE 6 13 3 7 1013.5 - 0.0
24/03:00pm 27.7 29.1 17.3 53 6.5 NE 6 11 3 6 1013.6 1013.6 0.0
24/02:30pm 27.1 27.8 17.0 54 6.3 NE 9 17 5 9 1013.7 - 0.0
24/02:00pm 28.6 30.3 17.2 50 7.2 NNE 4 11 2 6 1013.9 1013.9 0.0
24/01:30pm 28.6 28.6 12.5 37 9.4 NE 4 11 2 6 1014.2 - 0.0
24/01:00pm 28.1 28.6 15.1 45 7.9 E 6 11 3 6 1014.6 1014.6 0.0
24/12:30pm 27.6 28.9 16.2 49 7.0 NW 4 7 2 4 1015.2 - 0.0
24/12:00pm 27.4 28.9 15.7 48 7.2 SSE 2 6 1 3 1015.7 1015.7 0.0
24/11:30am 26.1 26.8 15.5 52 6.4 NW 6 11 3 6 1016.2 - 0.0
24/11:00am 25.8 26.9 16.6 56 5.7 W 6 11 3 6 1016.4 1016.4 0.0
24/10:30am 25.2 26.3 16.6 59 5.3 WSW 6 7 3 4 1017.0 - 0.0
24/10:00am 23.6 24.8 16.9 66 4.1 WSW 6 11 3 6 1017.6 1017.6 0.0
24/09:30am 23.1 25.0 17.6 71 3.4 SSW 4 7 2 4 1018.1 - 0.0
24/09:00am 21.6 22.7 16.6 73 3.0 WSW 6 9 3 5 1018.1 1018.1 0.0
24/08:30am 21.2 22.2 16.4 74 2.9 SW 6 11 3 6 1017.8 - 0.0
24/08:00am 20.1 21.3 15.9 77 2.5 SW 4 9 2 5 1017.6 1017.6 0.0
24/07:30am 18.8 20.0 15.9 83 1.7 SW 4 9 2 5 1017.8 - 0.0
24/07:00am 17.5 18.6 15.5 88 1.2 SW 4 7 2 4 1016.9 1016.9 0.0
24/06:30am 16.6 17.6 15.3 92 0.8 SW 4 9 2 5 1016.7 - 0.0
24/06:00am 16.4 17.6 14.9 91 0.9 SW 2 6 1 3 1016.5 1016.5 0.0
24/05:30am 16.3 17.8 14.7 90 0.9 CALM 0 4 0 2 1016.3 - 0.0
24/05:00am 16.9 17.9 15.4 91 0.9 SW 4 7 2 4 1016.3 1016.3 0.0
24/04:30am 16.9 18.3 15.4 91 0.9 WSW 2 4 1 2 1016.1 - 0.0
24/04:00am 17.3 18.4 15.6 90 1.0 SW 4 6 2 3 1015.7 1015.7 0.0
24/03:30am 17.4 18.6 15.9 91 0.9 WSW 4 7 2 4 1015.8 - 0.0
24/03:00am 17.6 19.7 16.3 92 0.8 CALM 0 4 0 2 1016.1 1016.1 0.0
24/02:30am 18.0 19.5 16.7 92 0.8 WSW 4 6 2 3 1016.2 - 0.0
24/02:00am 18.2 20.2 16.9 92 0.8 WSW 2 6 1 3 1016.3 1016.3 0.0
24/01:30am 18.4 20.1 17.2 93 0.7 WSW 4 7 2 4 1016.5 - 0.0
24/01:00am 18.5 20.4 17.7 95 0.5 SW 4 6 2 3 1016.7 1016.7 0.0
24/12:30am 17.7 20.0 16.7 94 0.6 CALM 0 4 0 2 1017.0 - 0.0
24/12:00am 17.7 19.8 16.2 91 0.9 CALM 0 0 0 0 1017.3 1017.3 0.0
 
Date/Time
EST
Tmp

°C
App
Tmp
°C
Dew
Point
°C
Rel
Hum
%
Delta-T

°C
Wind Press
QNH
hPa
Press
MSL
hPa
Rain
since
9 am
mm
Dir
 
Spd
km/h
Gust
km/h
Spd
kts
Gust
kts
23/11:30pm 18.0 20.0 16.0 88 1.2 CALM 0 0 0 0 1017.5 - 0.0
23/11:00pm 18.8 21.0 16.6 87 1.3 CALM 0 0 0 0 1017.6 1017.6 0.0
23/10:30pm 19.3 21.5 16.5 84 1.7 CALM 0 0 0 0 1017.6 - 0.0
23/10:00pm 20.1 22.3 16.5 80 2.2 CALM 0 0 0 0 1017.7 1017.7 0.0
23/09:30pm 21.4 23.2 17.4 78 2.5 NNW 4 9 2 5 1017.7 - 0.0
23/09:00pm 21.8 23.4 17.8 78 2.5 N 6 9 3 5 1017.6 1017.6 0.0
23/08:30pm 21.7 24.2 18.1 80 2.2 NNW 2 6 1 3 1017.5 - 0.0
23/08:00pm 21.9 23.9 17.9 78 2.5 N 4 6 2 3 1017.5 1017.5 0.0
23/07:30pm 21.9 24.0 17.3 75 2.8 NNE 2 4 1 2 1017.3 - 0.0
23/07:00pm 22.7 24.6 17.6 73 3.2 N 4 11 2 6 1017.2 1017.2 0.0
23/06:30pm 22.9 24.3 17.4 71 3.4 N 6 13 3 7 1016.9 - 0.0
23/06:00pm 22.9 24.5 16.9 69 3.7 NNE 4 7 2 4 1016.7 1016.7 0.0
23/05:30pm 23.4 24.3 16.2 64 4.4 NE 6 13 3 7 1016.4 - 0.0
23/05:00pm 24.4 25.0 15.9 59 5.2 NNE 7 13 4 7 1016.2 1016.2 0.0
23/04:30pm 25.7 26.2 15.1 52 6.4 NNE 6 13 3 7 1015.7 - 0.0
23/04:00pm 26.6 26.7 14.4 47 7.3 NNE 7 17 4 9 1015.6 1015.6 0.0
23/03:30pm 26.6 26.9 14.4 47 7.3 NNE 6 9 3 5 1015.6 - 0.0
23/03:00pm 26.7 26.9 14.1 46 7.5 NE 6 15 3 8 1015.5 1015.5 0.0
23/02:30pm 26.9 27.2 14.6 46 7.4 NE 6 9 3 5 1015.7 - 0.0
23/02:00pm 28.1 29.4 15.1 45 7.9 NE 2 6 1 3 1015.8 1015.8 0.0
23/01:30pm 27.1 27.4 13.4 42 8.1 E 4 7 2 4 1016.0 - 0.0
23/01:00pm 27.3 28.2 14.0 44 7.9 N 2 7 1 4 1016.3 1016.3 0.0
23/12:30pm 26.5 27.2 14.6 48 7.1 NNE 4 9 2 5 1016.9 - 0.0
23/12:00pm 27.0 27.9 15.1 48 7.2 NNW 4 6 2 3 1017.4 1017.4 0.0
23/11:30am 26.1 26.7 14.2 48 7.1 E 4 7 2 4 1018.1 - 0.0
23/11:00am 25.8 27.3 16.6 56 5.7 W 4 7 2 4 1018.7 1018.7 0.0
23/10:30am 25.3 26.6 17.2 61 5.0 SSW 6 11 3 6 1019.1 - 0.0
23/10:00am 23.7 24.4 15.7 61 4.8 WSW 6 9 3 5 1019.4 1019.4 0.0
23/09:30am 23.3 24.5 16.8 67 4.0 SW 6 9 3 5 1019.7 - 0.0
23/09:00am 21.8 23.1 16.1 70 3.4 WSW 4 7 2 4 1020.0 1020.0 0.0
23/08:30am 20.3 21.1 15.9 76 2.6 SW 6 9 3 5 1020.1 - 0.0
23/08:00am 19.1 19.7 15.2 78 2.3 SW 6 11 3 6 1020.1 1020.1 0.0
23/07:30am 18.0 18.5 14.9 82 1.8 WSW 6 11 3 6 1020.0 - 0.0
23/07:00am 17.2 18.4 15.0 87 1.3 SW 2 7 1 4 1019.7 1019.7 0.0
23/06:30am 16.8 17.7 15.0 89 1.0 SW 4 9 2 5 1019.5 - 0.0
23/06:00am 16.7 17.5 14.9 89 1.0 SW 4 6 2 3 1019.3 1019.3 0.0
23/05:30am 16.9 17.7 14.9 88 1.2 SW 4 7 2 4 1019.2 - 0.0
23/05:00am 17.4 18.4 15.4 88 1.2 WSW 4 7 2 4 1018.9 1018.9 0.0
23/04:30am 17.5 18.5 15.3 87 1.3 WSW 4 7 2 4 1018.5 - 0.0
23/04:00am 17.2 18.4 14.8 86 1.4 W 2 4 1 2 1018.1 1018.1 0.0
23/03:30am 17.3 18.9 14.8 85 1.4 CALM 0 0 0 0 1018.2 - 0.0
23/03:00am 17.8 19.1 15.2 85 1.5 WSW 2 4 1 2 1018.4 1018.4 0.0
23/02:30am 17.9 18.9 15.3 85 1.5 W 4 7 2 4 1018.6 - 0.0
23/02:00am 17.5 19.1 14.8 84 1.6 CALM 0 0 0 0 1018.7 1018.7 0.0
23/01:30am 18.0 19.7 15.3 84 1.6 CALM 0 0 0 0 1018.8 - 0.0
23/01:00am 18.6 20.1 15.8 84 1.7 W 2 4 1 2 1019.1 1019.1 0.0
23/12:30am 18.1 20.0 16.6 91 0.9 WSW 2 7 1 4 1019.2 - 0.0
23/12:00am 17.2 18.4 15.0 87 1.3 SSE 2 4 1 2 1019.2 1019.2 0.0
 
Date/Time
EST
Tmp

°C
App
Tmp
°C
Dew
Point
°C
Rel
Hum
%
Delta-T

°C
Wind Press
QNH
hPa
Press
MSL
hPa
Rain
since
9 am
mm
Dir
 
Spd
km/h
Gust
km/h
Spd
kts
Gust
kts
22/11:30pm 17.6 19.2 15.0 85 1.5 CALM 0 0 0 0 1019.3 - 0.0
22/11:00pm 18.2 20.0 15.5 84 1.6 CALM 0 0 0 0 1019.3 1019.3 0.0
22/10:30pm 18.8 20.6 15.5 81 1.9 CALM 0 6 0 3 1019.5 - 0.0
22/10:00pm 19.6 21.5 15.7 78 2.3 CALM 0 0 0 0 1019.7 1019.7 0.0
22/09:30pm 20.3 22.3 15.9 76 2.6 CALM 0 4 0 2 1019.7 - 0.0
22/09:00pm 20.3 22.1 15.5 74 2.8 CALM 0 2 0 1 1019.7 1019.7 0.0
22/08:30pm 20.6 22.5 15.8 74 2.9 CALM 0 4 0 2 1019.9 - 0.0
22/08:00pm 21.0 22.5 15.8 72 3.1 N 2 6 1 3 1019.8 1019.8 0.0
22/07:30pm 21.0 22.5 15.8 72 3.1 N 2 4 1 2 1019.5 - 0.0

Latest Capital City Observations: Canberra | Sydney | Melbourne | Brisbane | Adelaide | Perth | Hobart | Darwin

Other Formats:

Comma delimited format used in spreadsheet applications
http://www.bom.gov.au/fwo/IDQ60901/IDQ60901.94576.axf

JavaScript Object Notation format (JSON) in row-major order
http://www.bom.gov.au/fwo/IDQ60901/IDQ60901.94576.json